sensor_id;sensor_type;location;lat;lon;timestamp;pressure;altitude;pressure_sealevel;temperature;humidity
20909;BME280;10614;53.198;6.570;2023-01-30T00:00:34;101289.03;;;5.63;100.00
20909;BME280;10614;53.198;6.570;2023-01-30T00:02:36;101289.03;;;5.63;100.00
20909;BME280;10614;53.198;6.570;2023-01-30T00:04:37;101310.72;;;5.66;100.00
20909;BME280;10614;53.198;6.570;2023-01-30T00:06:39;101308.16;;;5.65;100.00
20909;BME280;10614;53.198;6.570;2023-01-30T00:08:40;101306.41;;;5.67;100.00
20909;BME280;10614;53.198;6.570;2023-01-30T00:10:44;101298.56;;;5.67;100.00
20909;BME280;10614;53.198;6.570;2023-01-30T00:12:46;101291.53;;;5.70;100.00
20909;BME280;10614;53.198;6.570;2023-01-30T00:14:47;101293.28;;;5.71;100.00
20909;BME280;10614;53.198;6.570;2023-01-30T00:16:49;101280.22;;;5.71;100.00
20909;BME280;10614;53.198;6.570;2023-01-30T00:18:51;101267.09;;;5.75;100.00
20909;BME280;10614;53.198;6.570;2023-01-30T00:20:55;101255.81;;;5.74;100.00
20909;BME280;10614;53.198;6.570;2023-01-30T00:22:57;101247.97;;;5.72;100.00
20909;BME280;10614;53.198;6.570;2023-01-30T00:24:59;101252.28;;;5.75;100.00
20909;BME280;10614;53.198;6.570;2023-01-30T00:27:02;101258.38;;;5.77;100.00
20909;BME280;10614;53.198;6.570;2023-01-30T00:29:03;101259.22;;;5.79;100.00
20909;BME280;10614;53.198;6.570;2023-01-30T00:31:06;101248.75;;;5.79;100.00
20909;BME280;10614;53.198;6.570;2023-01-30T00:33:08;101234.78;;;5.80;100.00
20909;BME280;10614;53.198;6.570;2023-01-30T00:35:10;101232.19;;;5.82;100.00
20909;BME280;10614;53.198;6.570;2023-01-30T00:37:12;101228.66;;;5.83;100.00
20909;BME280;10614;53.198;6.570;2023-01-30T00:39:13;101221.66;;;5.85;100.00
20909;BME280;10614;53.198;6.570;2023-01-30T00:41:15;101221.72;;;5.83;100.00
20909;BME280;10614;53.198;6.570;2023-01-30T00:43:20;101219.09;;;5.83;100.00
20909;BME280;10614;53.198;6.570;2023-01-30T00:45:40;101218.19;;;5.86;100.00
20909;BME280;10614;53.198;6.570;2023-01-30T00:47:59;101219.06;;;5.85;100.00
20909;BME280;10614;53.198;6.570;2023-01-30T00:50:01;101215.53;;;5.87;100.00
20909;BME280;10614;53.198;6.570;2023-01-30T00:52:03;101206.88;;;5.85;100.00
20909;BME280;10614;53.198;6.570;2023-01-30T00:54:05;101222.56;;;5.85;100.00
20909;BME280;10614;53.198;6.570;2023-01-30T00:56:07;101208.69;;;5.80;100.00
20909;BME280;10614;53.198;6.570;2023-01-30T00:58:08;101221.78;;;5.79;100.00
20909;BME280;10614;53.198;6.570;2023-01-30T01:00:13;101207.81;;;5.80;100.00
20909;BME280;10614;53.198;6.570;2023-01-30T01:02:16;101214.81;;;5.78;100.00
20909;BME280;10614;53.198;6.570;2023-01-30T01:04:18;101209.63;;;5.76;100.00
20909;BME280;10614;53.198;6.570;2023-01-30T01:06:19;101194.81;;;5.75;100.00
20909;BME280;10614;53.198;6.570;2023-01-30T01:08:21;101185.28;;;5.74;100.00
20909;BME280;10614;53.198;6.570;2023-01-30T01:10:23;101193.13;;;5.74;100.00
20909;BME280;10614;53.198;6.570;2023-01-30T01:12:24;101188.81;;;5.70;100.00
20909;BME280;10614;53.198;6.570;2023-01-30T01:14:26;101188.81;;;5.70;100.00
20909;BME280;10614;53.198;6.570;2023-01-30T01:16:30;101180.97;;;5.70;100.00
20909;BME280;10614;53.198;6.570;2023-01-30T01:18:32;101194.94;;;5.69;100.00
20909;BME280;10614;53.198;6.570;2023-01-30T01:20:33;101187.97;;;5.68;100.00
20909;BME280;10614;53.198;6.570;2023-01-30T01:22:35;101183.59;;;5.68;100.00
20909;BME280;10614;53.198;6.570;2023-01-30T01:24:37;101179.28;;;5.67;100.00
20909;BME280;10614;53.198;6.570;2023-01-30T01:26:38;101174.91;;;5.66;100.00
20909;BME280;10614;53.198;6.570;2023-01-30T01:28:40;101170.56;;;5.67;100.00
20909;BME280;10614;53.198;6.570;2023-01-30T01:30:42;101190.63;;;5.65;100.00
20909;BME280;10614;53.198;6.570;2023-01-30T01:32:45;101197.56;;;5.67;100.00
20909;BME280;10614;53.198;6.570;2023-01-30T01:34:47;101183.59;;;5.68;100.00
20909;BME280;10614;53.198;6.570;2023-01-30T01:36:49;101175.75;;;5.68;100.00
20909;BME280;10614;53.198;6.570;2023-01-30T01:38:50;101166.19;;;5.69;100.00
20909;BME280;10614;53.198;6.570;2023-01-30T01:40:52;101160.13;;;5.67;100.00
20909;BME280;10614;53.198;6.570;2023-01-30T01:43:02;101175.81;;;5.65;100.00
20909;BME280;10614;53.198;6.570;2023-01-30T01:45:14;101157.53;;;5.67;100.00
20909;BME280;10614;53.198;6.570;2023-01-30T01:47:16;101154.91;;;5.67;100.00
20909;BME280;10614;53.198;6.570;2023-01-30T01:49:22;101161.00;;;5.67;100.00
20909;BME280;10614;53.198;6.570;2023-01-30T01:51:28;101154.91;;;5.67;100.00
20909;BME280;10614;53.198;6.570;2023-01-30T01:53:34;101145.31;;;5.67;100.00
20909;BME280;10614;53.198;6.570;2023-01-30T01:55:37;101156.63;;;5.68;100.00
20909;BME280;10614;53.198;6.570;2023-01-30T01:57:42;101153.16;;;5.69;100.00
20909;BME280;10614;53.198;6.570;2023-01-30T01:59:49;101150.53;;;5.69;100.00
20909;BME280;10614;53.198;6.570;2023-01-30T02:01:53;101150.50;;;5.70;100.00
20909;BME280;10614;53.198;6.570;2023-01-30T02:03:59;101148.78;;;5.68;100.00
20909;BME280;10614;53.198;6.570;2023-01-30T02:06:06;101146.13;;;5.71;100.00
20909;BME280;10614;53.198;6.570;2023-01-30T02:08:09;101133.03;;;5.72;100.00
20909;BME280;10614;53.198;6.570;2023-01-30T02:10:17;101139.97;;;5.75;100.00
20909;BME280;10614;53.198;6.570;2023-01-30T02:12:19;101139.97;;;5.77;100.00
20909;BME280;10614;53.198;6.570;2023-01-30T02:14:21;101153.88;;;5.77;100.00
20909;BME280;10614;53.198;6.570;2023-01-30T02:16:23;101143.44;;;5.77;100.00
20909;BME280;10614;53.198;6.570;2023-01-30T02:18:25;101145.19;;;5.77;100.00
20909;BME280;10614;53.198;6.570;2023-01-30T02:20:35;101142.50;;;5.80;100.00
20909;BME280;10614;53.198;6.570;2023-01-30T02:23:00;101147.72;;;5.81;100.00
20909;BME280;10614;53.198;6.570;2023-01-30T02:25:20;101144.22;;;5.82;100.00
20909;BME280;10614;53.198;6.570;2023-01-30T02:27:46;101134.59;;;5.84;100.00
20909;BME280;10614;53.198;6.570;2023-01-30T02:32:28;101129.38;;;5.84;100.00
20909;BME280;10614;53.198;6.570;2023-01-30T02:34:39;101125.91;;;5.85;100.00
20909;BME280;10614;53.198;6.570;2023-01-30T02:36:50;101124.09;;;5.87;100.00
20909;BME280;10614;53.198;6.570;2023-01-30T02:39:01;101124.09;;;5.89;100.00
20909;BME280;10614;53.198;6.570;2023-01-30T02:41:16;101118.84;;;5.89;100.00
20909;BME280;10614;53.198;6.570;2023-01-30T02:43:26;101101.41;;;5.91;100.00
20909;BME280;10614;53.198;6.570;2023-01-30T02:45:34;101114.50;;;5.89;100.00
20909;BME280;10614;53.198;6.570;2023-01-30T02:47:41;101114.50;;;5.89;100.00
20909;BME280;10614;53.198;6.570;2023-01-30T02:49:47;101110.09;;;5.91;100.00
20909;BME280;10614;53.198;6.570;2023-01-30T02:51:53;101097.88;;;5.93;100.00
20909;BME280;10614;53.198;6.570;2023-01-30T02:53:57;101095.25;;;5.93;100.00
20909;BME280;10614;53.198;6.570;2023-01-30T02:56:00;101109.22;;;5.94;100.00
20909;BME280;10614;53.198;6.570;2023-01-30T02:58:02;101131.81;;;5.98;100.00
20909;BME280;10614;53.198;6.570;2023-01-30T03:00:06;101112.63;;;5.99;100.00
20909;BME280;10614;53.198;6.570;2023-01-30T03:02:24;101109.13;;;6.02;100.00
20909;BME280;10614;53.198;6.570;2023-01-30T03:04:45;101100.34;;;6.04;100.00
20909;BME280;10614;53.198;6.570;2023-01-30T03:07:01;101103.84;;;6.03;100.00
20909;BME280;10614;53.198;6.570;2023-01-30T03:09:15;101092.56;;;6.01;100.00
20909;BME280;10614;53.198;6.570;2023-01-30T03:11:23;101091.63;;;6.05;100.00
20909;BME280;10614;53.198;6.570;2023-01-30T03:13:39;101096.84;;;6.05;100.00
20909;BME280;10614;53.198;6.570;2023-01-30T03:15:48;101085.53;;;6.06;100.00
20909;BME280;10614;53.198;6.570;2023-01-30T03:17:51;101090.75;;;6.06;100.00
20909;BME280;10614;53.198;6.570;2023-01-30T03:19:54;101089.84;;;6.06;100.00
20909;BME280;10614;53.198;6.570;2023-01-30T03:21:56;101093.38;;;6.05;100.00
20909;BME280;10614;53.198;6.570;2023-01-30T03:23:58;101100.28;;;6.07;100.00
20909;BME280;10614;53.198;6.570;2023-01-30T03:26:02;101092.53;;;6.03;100.00
20909;BME280;10614;53.198;6.570;2023-01-30T03:28:05;101089.94;;;6.01;100.00
20909;BME280;10614;53.198;6.570;2023-01-30T03:30:08;101096.06;;;6.00;100.00
20909;BME280;10614;53.198;6.570;2023-01-30T03:32:10;101135.28;;;5.99;100.00
20909;BME280;10614;53.198;6.570;2023-01-30T03:34:11;101123.13;;;5.95;100.00
20909;BME280;10614;53.198;6.570;2023-01-30T03:36:14;101115.31;;;5.93;100.00
20909;BME280;10614;53.198;6.570;2023-01-30T03:38:16;101134.53;;;5.89;100.00
20909;BME280;10614;53.198;6.570;2023-01-30T03:40:18;101118.00;;;5.87;100.00
20909;BME280;10614;53.198;6.570;2023-01-30T03:42:20;101109.34;;;5.85;100.00
20909;BME280;10614;53.198;6.570;2023-01-30T03:44:22;101124.16;;;5.84;100.00
20909;BME280;10614;53.198;6.570;2023-01-30T03:46:23;101130.28;;;5.83;100.00
20909;BME280;10614;53.198;6.570;2023-01-30T03:48:25;101125.09;;;5.80;100.00
20909;BME280;10614;53.198;6.570;2023-01-30T03:50:27;101123.38;;;5.79;100.00
20909;BME280;10614;53.198;6.570;2023-01-30T03:52:33;101131.22;;;5.78;100.00
20909;BME280;10614;53.198;6.570;2023-01-30T03:54:34;101127.75;;;5.77;100.00
20909;BME280;10614;53.198;6.570;2023-01-30T03:56:36;101125.09;;;5.80;100.00
20909;BME280;10614;53.198;6.570;2023-01-30T03:58:38;101126.06;;;5.75;100.00
20909;BME280;10614;53.198;6.570;2023-01-30T04:00:39;101129.56;;;5.74;100.00
20909;BME280;10614;53.198;6.570;2023-01-30T04:02:41;101130.41;;;5.74;100.00
20909;BME280;10614;53.198;6.570;2023-01-30T04:04:42;101114.78;;;5.71;100.00
20909;BME280;10614;53.198;6.570;2023-01-30T04:06:44;101140.94;;;5.68;100.00
20909;BME280;10614;53.198;6.570;2023-01-30T04:08:50;101169.69;;;5.68;100.00
20909;BME280;10614;53.198;6.570;2023-01-30T04:10:52;101127.84;;;5.71;100.00
20909;BME280;10614;53.198;6.570;2023-01-30T04:12:53;101144.41;;;5.68;100.00
20909;BME280;10614;53.198;6.570;2023-01-30T04:14:55;101123.53;;;5.68;100.00
20909;BME280;10614;53.198;6.570;2023-01-30T04:16:57;101138.34;;;5.66;100.00
20909;BME280;10614;53.198;6.570;2023-01-30T04:18:58;101140.16;;;5.64;100.00
20909;BME280;10614;53.198;6.570;2023-01-30T04:21:00;101144.53;;;5.61;100.00
20909;BME280;10614;53.198;6.570;2023-01-30T04:23:01;101166.34;;;5.60;100.00
20909;BME280;10614;53.198;6.570;2023-01-30T04:25:05;101154.19;;;5.57;100.00
20909;BME280;10614;53.198;6.570;2023-01-30T04:27:07;101135.94;;;5.54;100.00
20909;BME280;10614;53.198;6.570;2023-01-30T04:29:09;101137.69;;;5.54;100.00
20909;BME280;10614;53.198;6.570;2023-01-30T04:31:11;101149.03;;;5.53;100.00
20909;BME280;10614;53.198;6.570;2023-01-30T04:33:12;101137.75;;;5.50;100.00
20909;BME280;10614;53.198;6.570;2023-01-30T04:35:14;101139.50;;;5.48;100.00
20909;BME280;10614;53.198;6.570;2023-01-30T04:37:16;101138.66;;;5.46;100.00
20909;BME280;10614;53.198;6.570;2023-01-30T04:39:18;101144.75;;;5.45;100.00
20909;BME280;10614;53.198;6.570;2023-01-30T04:41:21;101142.19;;;5.44;100.00
20909;BME280;10614;53.198;6.570;2023-01-30T04:43:23;101149.16;;;5.43;100.00
20909;BME280;10614;53.198;6.570;2023-01-30T04:45:25;101144.75;;;5.45;100.00
20909;BME280;10614;53.198;6.570;2023-01-30T04:47:27;101136.97;;;5.44;100.00
20909;BME280;10614;53.198;6.570;2023-01-30T04:49:29;101134.34;;;5.42;100.00
20909;BME280;10614;53.198;6.570;2023-01-30T04:51:30;101137.88;;;5.41;100.00
20909;BME280;10614;53.198;6.570;2023-01-30T04:53:32;101151.78;;;5.42;100.00
20909;BME280;10614;53.198;6.570;2023-01-30T04:55:34;101152.69;;;5.39;100.00
20909;BME280;10614;53.198;6.570;2023-01-30T04:57:37;101166.59;;;5.38;100.00
20909;BME280;10614;53.198;6.570;2023-01-30T04:59:38;101156.16;;;5.40;100.00
20909;BME280;10614;53.198;6.570;2023-01-30T05:01:40;101149.19;;;5.40;100.00
20909;BME280;10614;53.198;6.570;2023-01-30T05:03:42;101157.91;;;5.39;100.00
20909;BME280;10614;53.198;6.570;2023-01-30T05:05:46;101158.75;;;5.40;100.00
20909;BME280;10614;53.198;6.570;2023-01-30T05:07:47;101147.47;;;5.38;100.00
20909;BME280;10614;53.198;6.570;2023-01-30T05:09:49;101145.75;;;5.37;100.00
20909;BME280;10614;53.198;6.570;2023-01-30T05:11:51;101157.97;;;5.36;100.00
20909;BME280;10614;53.198;6.570;2023-01-30T05:13:54;101147.53;;;5.33;100.00
20909;BME280;10614;53.198;6.570;2023-01-30T05:15:55;101147.56;;;5.32;100.00
20909;BME280;10614;53.198;6.570;2023-01-30T05:17:57;101146.69;;;5.31;100.00
20909;BME280;10614;53.198;6.570;2023-01-30T05:19:59;101160.63;;;5.30;100.00
20909;BME280;10614;53.198;6.570;2023-01-30T05:22:01;101151.06;;;5.29;100.00
20909;BME280;10614;53.198;6.570;2023-01-30T05:24:03;101138.97;;;5.25;100.00
20909;BME280;10614;53.198;6.570;2023-01-30T05:26:05;101150.25;;;5.25;100.00
20909;BME280;10614;53.198;6.570;2023-01-30T05:28:06;101159.03;;;5.20;100.00
20909;BME280;10614;53.198;6.570;2023-01-30T05:30:10;101146.00;;;5.17;100.00
20909;BME280;10614;53.198;6.570;2023-01-30T05:32:13;101151.28;;;5.15;100.00
20909;BME280;10614;53.198;6.570;2023-01-30T05:34:15;101158.25;;;5.13;100.00
20909;BME280;10614;53.198;6.570;2023-01-30T05:36:18;101173.00;;;5.13;100.00
20909;BME280;10614;53.198;6.570;2023-01-30T05:38:21;101160.88;;;5.12;100.00
20909;BME280;10614;53.198;6.570;2023-01-30T05:40:23;101155.66;;;5.12;100.00
20909;BME280;10614;53.198;6.570;2023-01-30T05:42:27;101167.88;;;5.08;100.00
20909;BME280;10614;53.198;6.570;2023-01-30T05:44:29;101141.75;;;5.10;100.00
20909;BME280;10614;53.198;6.570;2023-01-30T05:46:32;101153.03;;;5.12;100.00
20909;BME280;10614;53.198;6.570;2023-01-30T05:48:34;101146.13;;;5.09;100.00
20909;BME280;10614;53.198;6.570;2023-01-30T05:50:35;101145.28;;;5.05;100.00
20909;BME280;10614;53.198;6.570;2023-01-30T05:52:37;101157.44;;;5.08;100.00
20909;BME280;10614;53.198;6.570;2023-01-30T05:54:38;101160.94;;;5.05;100.00
20909;BME280;10614;53.198;6.570;2023-01-30T05:56:42;101142.66;;;5.05;100.00
20909;BME280;10614;53.198;6.570;2023-01-30T05:58:49;101164.44;;;5.04;100.00
20909;BME280;10614;53.198;6.570;2023-01-30T06:00:51;101152.28;;;5.03;100.00
20909;BME280;10614;53.198;6.570;2023-01-30T06:02:54;101154.00;;;5.06;100.00
20909;BME280;10614;53.198;6.570;2023-01-30T06:04:55;101151.38;;;5.04;100.00
20909;BME280;10614;53.198;6.570;2023-01-30T06:06:57;101160.97;;;5.02;100.00
20909;BME280;10614;53.198;6.570;2023-01-30T06:08:59;101137.50;;;5.02;100.00
20909;BME280;10614;53.198;6.570;2023-01-30T06:11:01;101148.81;;;5.01;100.00
20909;BME280;10614;53.198;6.570;2023-01-30T06:13:03;101167.03;;;5.03;100.00
20909;BME280;10614;53.198;6.570;2023-01-30T06:15:05;101139.25;;;5.02;100.00
20909;BME280;10614;53.198;6.570;2023-01-30T06:17:07;101160.06;;;5.06;100.00
20909;BME280;10614;53.198;6.570;2023-01-30T06:19:10;101148.72;;;5.07;100.00
20909;BME280;10614;53.198;6.570;2023-01-30T06:21:13;101159.22;;;5.06;100.00
20909;BME280;10614;53.198;6.570;2023-01-30T06:23:15;101147.03;;;5.06;100.00
20909;BME280;10614;53.198;6.570;2023-01-30T06:25:17;101142.66;;;5.07;100.00
20909;BME280;10614;53.198;6.570;2023-01-30T06:27:18;101142.59;;;5.12;100.00
20909;BME280;10614;53.198;6.570;2023-01-30T06:29:20;101172.16;;;5.14;100.00
20909;BME280;10614;53.198;6.570;2023-01-30T06:31:22;101138.22;;;5.14;100.00
20909;BME280;10614;53.198;6.570;2023-01-30T06:33:23;101146.00;;;5.18;100.00
20909;BME280;10614;53.198;6.570;2023-01-30T06:35:26;101152.91;;;5.22;100.00
20909;BME280;10614;53.198;6.570;2023-01-30T06:37:28;101143.34;;;5.23;100.00
20909;BME280;10614;53.198;6.570;2023-01-30T06:39:30;101172.91;;;5.23;100.00
20909;BME280;10614;53.198;6.570;2023-01-30T06:41:31;101164.22;;;5.23;100.00
20909;BME280;10614;53.198;6.570;2023-01-30T06:43:33;101156.31;;;5.27;100.00
20909;BME280;10614;53.198;6.570;2023-01-30T06:45:35;101147.63;;;5.27;100.00
20909;BME280;10614;53.198;6.570;2023-01-30T06:47:43;101153.72;;;5.26;100.00
20909;BME280;10614;53.198;6.570;2023-01-30T06:49:45;101145.88;;;5.26;100.00
20909;BME280;10614;53.198;6.570;2023-01-30T06:51:49;101152.81;;;5.28;100.00
20909;BME280;10614;53.198;6.570;2023-01-30T06:53:51;101163.31;;;5.25;100.00
20909;BME280;10614;53.198;6.570;2023-01-30T06:55:52;101176.34;;;5.27;100.00
20909;BME280;10614;53.198;6.570;2023-01-30T06:58:00;101174.59;;;5.26;100.00
20909;BME280;10614;53.198;6.570;2023-01-30T07:00:04;101165.06;;;5.25;100.00
20909;BME280;10614;53.198;6.570;2023-01-30T07:02:06;101170.28;;;5.25;100.00
20909;BME280;10614;53.198;6.570;2023-01-30T07:04:07;101166.81;;;5.24;100.00
20909;BME280;10614;53.198;6.570;2023-01-30T07:06:09;101173.75;;;5.24;100.00
20909;BME280;10614;53.198;6.570;2023-01-30T07:08:13;101190.31;;;5.23;100.00
20909;BME280;10614;53.198;6.570;2023-01-30T07:10:15;101180.72;;;5.23;100.00
20909;BME280;10614;53.198;6.570;2023-01-30T07:12:17;101188.56;;;5.23;100.00
20909;BME280;10614;53.198;6.570;2023-01-30T07:14:19;101191.13;;;5.26;100.00
20909;BME280;10614;53.198;6.570;2023-01-30T07:16:21;101192.88;;;5.27;100.00
20909;BME280;10614;53.198;6.570;2023-01-30T07:18:27;101180.66;;;5.28;100.00
20909;BME280;10614;53.198;6.570;2023-01-30T07:20:29;101199.78;;;5.30;100.00
20909;BME280;10614;53.198;6.570;2023-01-30T07:22:31;101196.34;;;5.26;100.00
20909;BME280;10614;53.198;6.570;2023-01-30T07:24:34;101194.56;;;5.28;100.00
20909;BME280;10614;53.198;6.570;2023-01-30T07:26:36;101190.19;;;5.31;100.00
20909;BME280;10614;53.198;6.570;2023-01-30T07:28:38;101191.97;;;5.30;100.00
20909;BME280;10614;53.198;6.570;2023-01-30T07:30:39;101200.63;;;5.32;100.00
20909;BME280;10614;53.198;6.570;2023-01-30T07:32:41;101207.56;;;5.33;100.00
20909;BME280;10614;53.198;6.570;2023-01-30T07:34:43;101207.56;;;5.33;100.00
20909;BME280;10614;53.198;6.570;2023-01-30T07:36:44;101195.41;;;5.32;100.00
20909;BME280;10614;53.198;6.570;2023-01-30T07:38:47;101196.25;;;5.34;100.00
20909;BME280;10614;53.198;6.570;2023-01-30T07:40:50;101198.88;;;5.34;100.00
20909;BME280;10614;53.198;6.570;2023-01-30T07:42:59;101218.84;;;5.35;100.00
20909;BME280;10614;53.198;6.570;2023-01-30T07:45:01;101191.91;;;5.35;100.00
20909;BME280;10614;53.198;6.570;2023-01-30T07:47:03;101204.94;;;5.35;100.00
20909;BME280;10614;53.198;6.570;2023-01-30T07:49:06;101200.56;;;5.37;100.00
20909;BME280;10614;53.198;6.570;2023-01-30T07:51:08;101209.28;;;5.36;100.00
20909;BME280;10614;53.198;6.570;2023-01-30T07:53:11;101191.88;;;5.36;100.00
20909;BME280;10614;53.198;6.570;2023-01-30T07:55:13;101192.75;;;5.35;100.00
20909;BME280;10614;53.198;6.570;2023-01-30T07:57:16;101190.16;;;5.35;100.00
20909;BME280;10614;53.198;6.570;2023-01-30T07:59:18;101191.84;;;5.38;100.00
20909;BME280;10614;53.198;6.570;2023-01-30T08:01:20;101203.16;;;5.38;100.00
20909;BME280;10614;53.198;6.570;2023-01-30T08:03:22;101199.69;;;5.39;100.00
20909;BME280;10614;53.198;6.570;2023-01-30T08:05:23;101196.16;;;5.40;100.00
20909;BME280;10614;53.198;6.570;2023-01-30T08:07:25;101210.13;;;5.39;100.00
20909;BME280;10614;53.198;6.570;2023-01-30T08:09:27;101207.47;;;5.42;100.00
20909;BME280;10614;53.198;6.570;2023-01-30T08:11:29;101207.41;;;5.45;100.00
20909;BME280;10614;53.198;6.570;2023-01-30T08:13:32;101218.69;;;5.47;100.00
20909;BME280;10614;53.198;6.570;2023-01-30T08:15:33;101208.31;;;5.44;100.00
20909;BME280;10614;53.198;6.570;2023-01-30T08:17:35;101216.13;;;5.44;100.00
20909;BME280;10614;53.198;6.570;2023-01-30T08:19:37;101210.00;;;5.47;100.00
20909;BME280;10614;53.198;6.570;2023-01-30T08:21:39;101213.47;;;5.47;100.00
20909;BME280;10614;53.198;6.570;2023-01-30T08:23:40;101216.94;;;5.49;100.00
20909;BME280;10614;53.198;6.570;2023-01-30T08:25:42;101211.72;;;5.49;100.00
20909;BME280;10614;53.198;6.570;2023-01-30T08:27:44;101213.41;;;5.52;100.00
20909;BME280;10614;53.198;6.570;2023-01-30T08:29:47;101212.56;;;5.53;100.00
20909;BME280;10614;53.198;6.570;2023-01-30T08:31:48;101234.31;;;5.52;100.00
20909;BME280;10614;53.198;6.570;2023-01-30T08:33:50;101200.34;;;5.52;100.00
20909;BME280;10614;53.198;6.570;2023-01-30T08:35:52;101209.91;;;5.55;100.00
20909;BME280;10614;53.198;6.570;2023-01-30T08:37:56;101225.56;;;5.58;100.00
20909;BME280;10614;53.198;6.570;2023-01-30T08:39:57;101201.16;;;5.59;100.00
20909;BME280;10614;53.198;6.570;2023-01-30T08:41:59;101198.53;;;5.59;100.00
20909;BME280;10614;53.198;6.570;2023-01-30T08:44:01;101197.69;;;5.57;100.00
20909;BME280;10614;53.198;6.570;2023-01-30T08:46:04;101189.00;;;5.58;100.00
20909;BME280;10614;53.198;6.570;2023-01-30T08:48:06;101197.63;;;5.61;100.00
20909;BME280;10614;53.198;6.570;2023-01-30T08:50:09;101198.47;;;5.62;100.00
20909;BME280;10614;53.198;6.570;2023-01-30T08:52:13;101200.28;;;5.58;100.00
20909;BME280;10614;53.198;6.570;2023-01-30T08:54:15;101195.91;;;5.60;100.00
20909;BME280;10614;53.198;6.570;2023-01-30T08:56:16;101226.41;;;5.60;100.00
20909;BME280;10614;53.198;6.570;2023-01-30T08:58:18;101191.53;;;5.61;100.00
20909;BME280;10614;53.198;6.570;2023-01-30T09:00:20;101212.38;;;5.65;100.00
20909;BME280;10614;53.198;6.570;2023-01-30T09:02:24;101194.03;;;5.68;100.00
20909;BME280;10614;53.198;6.570;2023-01-30T09:04:28;101221.06;;;5.67;100.00
20909;BME280;10614;53.198;6.570;2023-01-30T09:06:30;101208.84;;;5.69;100.00
20909;BME280;10614;53.198;6.570;2023-01-30T09:08:32;101221.88;;;5.71;100.00
20909;BME280;10614;53.198;6.570;2023-01-30T09:10:34;101227.97;;;5.71;100.00
20909;BME280;10614;53.198;6.570;2023-01-30T09:12:36;101233.22;;;5.70;100.00
20909;BME280;10614;53.198;6.570;2023-01-30T09:14:37;101201.00;;;5.69;100.00
20909;BME280;10614;53.198;6.570;2023-01-30T09:16:39;101191.41;;;5.71;100.00
20909;BME280;10614;53.198;6.570;2023-01-30T09:18:43;101187.91;;;5.72;100.00
20909;BME280;10614;53.198;6.570;2023-01-30T09:20:45;101178.31;;;5.73;100.00
20909;BME280;10614;53.198;6.570;2023-01-30T09:22:47;101204.41;;;5.76;100.00
20909;BME280;10614;53.198;6.570;2023-01-30T09:24:49;101185.28;;;5.72;100.00
20909;BME280;10614;53.198;6.570;2023-01-30T09:26:51;101203.56;;;5.74;100.00
20909;BME280;10614;53.198;6.570;2023-01-30T09:28:52;101192.22;;;5.75;100.00
20909;BME280;10614;53.198;6.570;2023-01-30T09:30:55;101207.81;;;5.80;100.00
20909;BME280;10614;53.198;6.570;2023-01-30T09:32:57;101188.69;;;5.79;100.00
20909;BME280;10614;53.198;6.570;2023-01-30T09:35:00;101263.53;;;5.82;100.00
20909;BME280;10614;53.198;6.570;2023-01-30T09:37:02;101192.97;;;5.83;100.00
20909;BME280;10614;53.198;6.570;2023-01-30T09:39:04;101193.03;;;5.79;100.00
20909;BME280;10614;53.198;6.570;2023-01-30T09:41:15;101196.59;;;5.73;100.00
20909;BME280;10614;53.198;6.570;2023-01-30T09:43:36;101221.91;;;5.69;100.00
20909;BME280;10614;53.198;6.570;2023-01-30T09:45:49;101228.97;;;5.63;100.00
20909;BME280;10614;53.198;6.570;2023-01-30T09:48:01;101237.69;;;5.60;100.00
20909;BME280;10614;53.198;6.570;2023-01-30T09:50:22;101208.06;;;5.64;100.00
20909;BME280;10614;53.198;6.570;2023-01-30T09:52:37;101208.00;;;5.67;100.00
20909;BME280;10614;53.198;6.570;2023-01-30T09:54:43;101213.22;;;5.69;100.00
20909;BME280;10614;53.198;6.570;2023-01-30T09:56:45;101218.38;;;5.72;100.00
20909;BME280;10614;53.198;6.570;2023-01-30T09:58:50;101225.25;;;5.78;100.00
20909;BME280;10614;53.198;6.570;2023-01-30T10:01:02;101211.34;;;5.79;100.00
20909;BME280;10614;53.198;6.570;2023-01-30T10:03:09;101226.91;;;5.85;100.00
20909;BME280;10614;53.198;6.570;2023-01-30T10:05:13;101215.59;;;5.84;100.00
20909;BME280;10614;53.198;6.570;2023-01-30T10:07:20;101232.09;;;5.88;100.00
20909;BME280;10614;53.198;6.570;2023-01-30T10:09:32;101259.00;;;5.95;100.00
20909;BME280;10614;53.198;6.570;2023-01-30T10:11:45;101258.94;;;6.01;100.00
20909;BME280;10614;53.198;6.570;2023-01-30T10:14:06;101252.84;;;6.02;100.00
20909;BME280;10614;53.198;6.570;2023-01-30T10:16:15;101249.31;;;6.03;100.00
20909;BME280;10614;53.198;6.570;2023-01-30T10:18:37;101230.13;;;6.07;100.00
20909;BME280;10614;53.198;6.570;2023-01-30T10:20:50;101254.50;;;6.07;100.00
20909;BME280;10614;53.198;6.570;2023-01-30T10:23:03;101281.41;;;6.12;100.00
20909;BME280;10614;53.198;6.570;2023-01-30T10:25:16;101344.94;;;6.18;100.00
20909;BME280;10614;53.198;6.570;2023-01-30T10:27:24;101357.38;;;6.00;100.00
20909;BME280;10614;53.198;6.570;2023-01-30T10:29:34;101311.34;;;5.87;100.00
20909;BME280;10614;53.198;6.570;2023-01-30T10:31:41;101315.03;;;5.74;100.00
20909;BME280;10614;53.198;6.570;2023-01-30T10:33:52;101296.88;;;5.61;100.00
20909;BME280;10614;53.198;6.570;2023-01-30T10:36:03;101301.38;;;5.48;100.00
20909;BME280;10614;53.198;6.570;2023-01-30T10:38:16;101316.25;;;5.43;100.00
20909;BME280;10614;53.198;6.570;2023-01-30T10:40:25;101297.19;;;5.34;100.00
20909;BME280;10614;53.198;6.570;2023-01-30T10:42:33;101308.59;;;5.25;100.00
20909;BME280;10614;53.198;6.570;2023-01-30T10:44:39;101302.59;;;5.18;100.00
20909;BME280;10614;53.198;6.570;2023-01-30T10:47:06;101293.06;;;5.14;100.00
20909;BME280;10614;53.198;6.570;2023-01-30T10:49:18;101307.88;;;5.11;100.00
20909;BME280;10614;53.198;6.570;2023-01-30T10:51:36;101373.94;;;5.14;100.00